Gibson, Iowa
Current Conditions -  °F | °C
As of 2:15 PM on Sunday 25 Jan 2015 (Local Time) from KOOA Reporting Station
Overcast Overcast  
Wind Chill: 16°   Ceiling: 1300
Heat Index: 29°   Visibility: 10mi
Dew Point: 26°   Wind: 21mph
Humidity: 87%   Direction: 20°NNE
Pressure: 29.9"   Gusts: 25mph
Location:  41.48°N, 92.39°W
Report Text: KOOA 252015Z AUTO 02018G22KT 10SM OVC013 M02/M04 A2990 RMK AO2 T10171036
Loading
Personal Weather Stations






























Interactive Weather Map New forecast layout! Learn more

10-Day Weather Forecast

Advertisements
Track Severe Weather on mobile